Time;durP1;ratioP1;P1;durP2;ratioP2;P2;SDS_P1;SDS_P2;PMS_P1;PMS_P2;Temp;Humidity;BMP_temperature;BMP_pressure;BME280_temperature;BME280_humidity;BME280_pressure;Samples;Min_cycle;Max_cycle;Signal;HPM_P1;HPM_P2
2023/02/09 16:43:14;;;;;;;32.42;15.43;;;3.70;99.90;;;;;;5053603;28;20334;-64
2023/02/09 16:45:41;;;;;;;29.88;16.70;;;3.60;99.90;;;;;;5048800;28;20037;-66
2023/02/09 16:48:23;;;;;;;28.50;15.82;;;3.70;99.90;;;;;;5048055;28;20041;-67
2023/02/09 16:50:52;;;;;;;;;;;3.80;99.90;;;;;;5028936;28;20036;-68
2023/02/09 16:53:31;;;;;;;27.60;14.55;;;3.90;99.90;;;;;;5032973;28;19999;-64
2023/02/09 16:56:03;;;;;;;29.45;15.40;;;4.00;99.90;;;;;;5047813;28;20454;-65
2023/02/09 16:58:29;;;;;;;25.77;15.15;;;4.00;99.90;;;;;;5048000;28;20116;-71
2023/02/09 17:00:56;;;;;;;28.17;15.43;;;4.10;99.90;;;;;;5046838;28;20114;-73
2023/02/09 17:03:35;;;;;;;30.38;15.60;;;4.20;99.90;;;;;;5047532;28;20025;-72
2023/02/09 17:06:02;;;;;;;31.38;17.38;;;4.30;99.90;;;;;;5048693;28;20080;-66
2023/02/09 17:08:31;;;;;;;27.00;16.02;;;4.30;99.90;;;;;;5047874;28;20626;-69
2023/02/09 17:10:57;;;;;;;27.80;15.93;;;4.40;99.90;;;;;;5047571;28;20053;-67
2023/02/09 17:13:23;;;;;;;26.20;14.40;;;4.50;99.90;;;;;;5045664;28;20026;-71
2023/02/09 17:16:02;;;;;;;26.10;14.68;;;4.50;99.90;;;;;;5043872;28;20017;-64
2023/02/09 17:18:31;;;;;;;27.85;14.40;;;4.50;99.90;;;;;;5046586;28;20411;-71
2023/02/09 17:21:18;;;;;;;25.38;13.93;;;4.50;99.90;;;;;;5048052;28;20112;-63
2023/02/09 17:23:43;;;;;;;30.60;16.10;;;4.50;99.90;;;;;;5047036;28;20029;-70
2023/02/09 17:26:10;;;;;;;31.08;16.00;;;4.60;99.90;;;;;;5047579;28;20421;-72
2023/02/09 17:28:36;;;;;;;29.38;16.75;;;4.50;99.90;;;;;;5048333;28;20017;-72
2023/02/09 17:31:13;;;;;;;30.92;16.92;;;4.50;99.90;;;;;;5046765;28;20029;-71
2023/02/09 17:33:38;;;;;;;27.83;15.40;;;4.60;99.90;;;;;;5047871;28;20025;-66
2023/02/09 17:36:04;;;;;;;32.13;16.98;;;4.60;99.90;;;;;;5047666;28;20109;-66
2023/02/09 17:38:33;;;;;;;32.33;15.68;;;4.50;99.90;;;;;;5036642;28;20025;-69
2023/02/09 17:41:02;;;;;;;31.55;16.23;;;4.60;99.90;;;;;;5037885;28;20512;-68
2023/02/09 17:43:28;;;;;;;29.67;15.70;;;4.60;99.90;;;;;;5054365;28;20486;-69
2023/02/09 17:45:54;;;;;;;31.35;16.75;;;4.60;99.90;;;;;;5041752;28;20031;-70
2023/02/09 17:48:20;;;;;;;32.72;17.70;;;4.60;99.90;;;;;;5056024;28;20028;-64
2023/02/09 17:50:48;;;;;;;30.48;17.23;;;4.60;99.90;;;;;;5057523;28;20029;-69
2023/02/09 17:53:15;;;;;;;34.75;16.73;;;4.60;99.90;;;;;;5040902;28;20580;-69
2023/02/09 17:55:41;;;;;;;30.20;17.52;;;4.70;99.90;;;;;;5034394;28;20029;-66
2023/02/09 17:58:06;;;;;;;30.02;17.48;;;4.60;99.90;;;;;;5044977;28;20112;-70
2023/02/09 18:00:32;;;;;;;33.83;16.50;;;4.60;99.90;;;;;;5032399;28;20385;-72
2023/02/09 18:02:58;;;;;;;36.13;19.85;;;4.70;99.90;;;;;;5050864;28;20052;-62
2023/02/09 18:05:25;;;;;;;34.95;18.63;;;4.70;99.90;;;;;;5035958;28;20090;-78
2023/02/09 18:07:52;;;;;;;34.38;18.40;;;4.70;99.90;;;;;;5053485;28;20025;-70
2023/02/09 18:10:20;;;;;;;38.90;19.85;;;4.70;99.90;;;;;;5037113;28;20033;-70
2023/02/09 18:12:47;;;;;;;37.20;19.15;;;4.80;99.90;;;;;;5044307;28;20025;-71
2023/02/09 18:15:29;;;;;;;35.95;17.98;;;4.80;99.90;;;;;;5035439;28;20449;-73
2023/02/09 18:17:56;;;;;;;36.42;18.55;;;4.80;99.90;;;;;;5053365;28;20044;-70
2023/02/09 18:20:28;;;;;;;42.17;20.15;;;4.80;99.90;;;;;;5034891;28;20021;-68
2023/02/09 18:22:54;;;;;;;40.55;19.77;;;4.80;99.90;;;;;;5036256;28;20037;-69
2023/02/09 18:25:22;;;;;;;39.90;19.35;;;4.80;99.90;;;;;;5053524;28;20028;-75
2023/02/09 18:27:50;;;;;;;34.30;17.73;;;4.80;99.90;;;;;;5034777;28;20107;-68
2023/02/09 18:30:16;;;;;;;43.95;19.92;;;4.80;99.90;;;;;;5053070;28;20017;-73
2023/02/09 18:32:42;;;;;;;40.70;20.63;;;4.80;99.90;;;;;;5053565;28;20132;-70
2023/02/09 18:35:16;;;;;;;39.85;19.52;;;4.80;99.90;;;;;;5052747;28;20032;-69
2023/02/09 18:37:42;;;;;;;39.28;19.33;;;4.70;99.90;;;;;;5053768;28;20052;-73
2023/02/09 18:40:08;;;;;;;37.85;19.63;;;4.80;99.90;;;;;;5035224;28;20067;-66
2023/02/09 18:42:34;;;;;;;42.38;19.83;;;4.80;99.90;;;;;;5051847;28;20052;-66
2023/02/09 18:44:59;;;;;;;44.33;20.00;;;4.80;99.90;;;;;;5053228;28;20029;-65
2023/02/09 18:47:26;;;;;;;47.90;22.02;;;4.70;99.90;;;;;;5052890;28;20497;-65
2023/02/09 18:49:51;;;;;;;37.67;20.48;;;4.80;99.90;;;;;;5052181;28;20083;-68
2023/02/09 18:52:17;;;;;;;40.42;20.55;;;4.70;99.90;;;;;;5052724;28;20055;-67
2023/02/09 18:54:43;;;;;;;39.65;20.13;;;4.80;99.90;;;;;;5053137;28;20534;-70
2023/02/09 18:57:09;;;;;;;40.42;20.85;;;4.80;99.90;;;;;;5052165;28;20029;-68
2023/02/09 18:59:35;;;;;;;45.47;20.25;;;4.80;99.90;;;;;;5053000;28;20106;-69
2023/02/09 19:02:01;;;;;;;43.35;21.00;;;4.80;99.90;;;;;;5034272;28;20079;-69
2023/02/09 19:04:27;;;;;;;45.63;22.48;;;4.80;99.90;;;;;;5051130;28;20029;-70
2023/02/09 19:06:53;;;;;;;43.83;20.38;;;4.80;99.90;;;;;;5034777;28;20029;-73
2023/02/09 19:09:19;;;;;;;40.47;20.17;;;4.80;99.90;;;;;;5033932;28;20024;-73
2023/02/09 19:11:44;;;;;;;42.63;22.23;;;4.80;99.90;;;;;;5034189;28;20120;-66
2023/02/09 19:16:54;;;;;;;45.63;19.95;;;4.70;99.90;;;;;;5052270;28;20473;-69
2023/02/09 19:19:19;;;;;;;45.83;21.35;;;4.80;99.90;;;;;;5052382;28;20096;-67
2023/02/09 19:21:46;;;;;;;44.45;21.08;;;4.80;99.90;;;;;;5052549;28;20091;-70
2023/02/09 19:24:12;;;;;;;43.30;21.17;;;4.80;99.90;;;;;;5052061;28;20134;-71
2023/02/09 19:26:37;;;;;;;43.33;21.85;;;4.80;99.90;;;;;;5052476;28;20021;-65
2023/02/09 19:29:03;;;;;;;43.17;21.40;;;4.90;99.90;;;;;;5052533;28;20036;-70
2023/02/09 19:31:29;;;;;;;50.88;23.45;;;4.90;99.90;;;;;;5051617;28;20079;-67
2023/02/09 19:33:56;;;;;;;43.30;22.50;;;4.80;99.90;;;;;;5051922;28;20455;-67
2023/02/09 19:36:21;;;;;;;46.72;21.50;;;4.80;99.90;;;;;;5052116;28;20025;-65
2023/02/09 19:38:47;;;;;;;47.95;22.60;;;4.70;99.90;;;;;;5051623;28;20029;-68
2023/02/09 19:41:13;;;;;;;44.75;21.23;;;4.60;99.90;;;;;;5052009;28;20645;-65
2023/02/09 19:43:39;;;;;;;50.17;23.38;;;4.50;99.90;;;;;;5052247;28;20025;-64
2023/02/09 19:46:06;;;;;;;48.83;24.45;;;4.50;99.90;;;;;;5051795;28;20025;-64
2023/02/09 19:48:31;;;;;;;45.30;22.30;;;4.50;99.90;;;;;;5051440;28;20032;-65
2023/02/09 19:51:00;;;;;;;48.80;23.33;;;4.50;99.90;;;;;;5052190;28;20025;-68
2023/02/09 19:53:26;;;;;;;57.15;22.85;;;4.50;99.90;;;;;;5051358;28;20477;-69
2023/02/09 19:55:52;;;;;;;43.83;20.70;;;4.40;99.90;;;;;;5052508;28;20108;-68
2023/02/09 19:58:21;;;;;;;48.15;22.80;;;4.30;99.90;;;;;;5051897;28;20382;-70
2023/02/09 20:00:47;;;;;;;48.22;22.00;;;4.30;99.90;;;;;;5052251;28;20021;-68
2023/02/09 20:03:14;;;;;;;48.80;23.13;;;4.20;99.90;;;;;;5051263;28;20033;-70
2023/02/09 20:05:41;;;;;;;48.40;22.65;;;4.20;99.90;;;;;;5051890;28;20021;-66
2023/02/09 20:08:07;;;;;;;43.70;23.55;;;4.10;99.90;;;;;;5051512;28;20075;-67
2023/02/09 20:10:32;;;;;;;52.55;24.58;;;4.20;99.90;;;;;;5034152;28;20077;-69
2023/02/09 20:12:58;;;;;;;41.10;21.80;;;4.20;99.90;;;;;;5031426;28;20511;-69
2023/02/09 20:15:24;;;;;;;44.78;22.15;;;4.20;99.90;;;;;;5040523;28;20616;-69
2023/02/09 20:17:49;;;;;;;39.95;21.30;;;4.20;99.90;;;;;;5051710;28;20056;-71
2023/02/09 20:20:15;;;;;;;46.50;22.25;;;4.10;99.90;;;;;;5050871;28;20162;-68
